sensor_id;sensor_type;location;lat;lon;timestamp;temperature;humidity
13798;DHT22;6970;51.340;3.240;2022-11-21T00:00:44;9.70;99.90
13798;DHT22;6970;51.340;3.240;2022-11-21T00:03:12;9.70;99.90
13798;DHT22;6970;51.340;3.240;2022-11-21T00:05:41;9.70;99.90
13798;DHT22;6970;51.340;3.240;2022-11-21T00:08:10;9.80;99.90
13798;DHT22;6970;51.340;3.240;2022-11-21T00:10:37;9.80;99.90
13798;DHT22;6970;51.340;3.240;2022-11-21T00:13:06;9.80;99.90
13798;DHT22;6970;51.340;3.240;2022-11-21T00:15:33;9.80;99.90
13798;DHT22;6970;51.340;3.240;2022-11-21T00:18:03;9.80;99.90
13798;DHT22;6970;51.340;3.240;2022-11-21T00:20:31;9.80;99.90
13798;DHT22;6970;51.340;3.240;2022-11-21T00:22:58;9.70;99.90
13798;DHT22;6970;51.340;3.240;2022-11-21T00:25:25;9.70;99.90
13798;DHT22;6970;51.340;3.240;2022-11-21T00:27:52;9.70;99.90
13798;DHT22;6970;51.340;3.240;2022-11-21T00:30:19;9.70;99.90
13798;DHT22;6970;51.340;3.240;2022-11-21T00:32:46;9.70;99.90
13798;DHT22;6970;51.340;3.240;2022-11-21T00:35:13;9.70;99.90
13798;DHT22;6970;51.340;3.240;2022-11-21T00:37:39;9.70;99.90
13798;DHT22;6970;51.340;3.240;2022-11-21T00:40:07;9.60;99.90
13798;DHT22;6970;51.340;3.240;2022-11-21T00:42:34;9.60;99.90
13798;DHT22;6970;51.340;3.240;2022-11-21T00:45:01;9.60;99.90
13798;DHT22;6970;51.340;3.240;2022-11-21T00:47:28;9.60;99.90
13798;DHT22;6970;51.340;3.240;2022-11-21T00:49:54;9.60;99.90
13798;DHT22;6970;51.340;3.240;2022-11-21T00:52:21;9.60;99.90
13798;DHT22;6970;51.340;3.240;2022-11-21T00:54:48;9.60;99.90
13798;DHT22;6970;51.340;3.240;2022-11-21T00:57:15;9.60;99.90
13798;DHT22;6970;51.340;3.240;2022-11-21T00:59:42;9.60;99.90
13798;DHT22;6970;51.340;3.240;2022-11-21T01:02:09;9.60;99.90
13798;DHT22;6970;51.340;3.240;2022-11-21T01:04:36;9.60;99.90
13798;DHT22;6970;51.340;3.240;2022-11-21T01:07:03;9.60;99.90
13798;DHT22;6970;51.340;3.240;2022-11-21T01:09:30;9.70;99.90
13798;DHT22;6970;51.340;3.240;2022-11-21T01:11:57;9.70;99.90
13798;DHT22;6970;51.340;3.240;2022-11-21T01:14:24;9.60;99.90
13798;DHT22;6970;51.340;3.240;2022-11-21T01:16:51;9.70;99.90
13798;DHT22;6970;51.340;3.240;2022-11-21T01:19:18;9.70;99.90
13798;DHT22;6970;51.340;3.240;2022-11-21T01:21:45;9.70;99.90
13798;DHT22;6970;51.340;3.240;2022-11-21T01:24:13;9.60;99.90
13798;DHT22;6970;51.340;3.240;2022-11-21T01:26:40;9.70;99.90
13798;DHT22;6970;51.340;3.240;2022-11-21T01:29:07;9.70;99.90
13798;DHT22;6970;51.340;3.240;2022-11-21T01:31:34;9.70;99.90
13798;DHT22;6970;51.340;3.240;2022-11-21T01:34:01;9.70;99.90
13798;DHT22;6970;51.340;3.240;2022-11-21T01:36:33;9.70;99.90
13798;DHT22;6970;51.340;3.240;2022-11-21T01:39:03;9.70;99.90
13798;DHT22;6970;51.340;3.240;2022-11-21T01:44:00;9.70;99.90
13798;DHT22;6970;51.340;3.240;2022-11-21T01:46:27;9.70;99.90
13798;DHT22;6970;51.340;3.240;2022-11-21T01:49:05;9.80;99.90
13798;DHT22;6970;51.340;3.240;2022-11-21T01:57:21;9.70;99.90
13798;DHT22;6970;51.340;3.240;2022-11-21T01:59:54;9.70;99.90
13798;DHT22;6970;51.340;3.240;2022-11-21T02:02:26;9.70;99.90
13798;DHT22;6970;51.340;3.240;2022-11-21T02:04:55;9.80;99.90
13798;DHT22;6970;51.340;3.240;2022-11-21T02:07:23;9.70;99.90
13798;DHT22;6970;51.340;3.240;2022-11-21T02:09:55;9.70;99.90
13798;DHT22;6970;51.340;3.240;2022-11-21T02:12:28;9.70;99.90
13798;DHT22;6970;51.340;3.240;2022-11-21T02:14:57;9.70;99.90
13798;DHT22;6970;51.340;3.240;2022-11-21T02:17:28;9.70;99.90
13798;DHT22;6970;51.340;3.240;2022-11-21T02:19:58;9.70;99.90
13798;DHT22;6970;51.340;3.240;2022-11-21T02:25:34;9.70;99.90
13798;DHT22;6970;51.340;3.240;2022-11-21T02:28:04;9.70;99.90
13798;DHT22;6970;51.340;3.240;2022-11-21T02:30:34;9.70;99.90
13798;DHT22;6970;51.340;3.240;2022-11-21T02:33:02;9.60;99.90
13798;DHT22;6970;51.340;3.240;2022-11-21T02:35:30;9.60;99.90
13798;DHT22;6970;51.340;3.240;2022-11-21T02:38:00;9.50;99.90
13798;DHT22;6970;51.340;3.240;2022-11-21T02:40:31;9.50;99.90
13798;DHT22;6970;51.340;3.240;2022-11-21T02:43:07;9.50;99.90
13798;DHT22;6970;51.340;3.240;2022-11-21T02:45:41;9.50;99.90
13798;DHT22;6970;51.340;3.240;2022-11-21T02:48:09;9.50;99.90
13798;DHT22;6970;51.340;3.240;2022-11-21T02:50:45;9.40;99.90
13798;DHT22;6970;51.340;3.240;2022-11-21T02:53:15;9.40;99.90
13798;DHT22;6970;51.340;3.240;2022-11-21T02:55:43;9.40;99.90
13798;DHT22;6970;51.340;3.240;2022-11-21T02:58:11;9.40;99.90
13798;DHT22;6970;51.340;3.240;2022-11-21T03:00:40;9.40;99.90
13798;DHT22;6970;51.340;3.240;2022-11-21T03:03:07;9.30;99.90
13798;DHT22;6970;51.340;3.240;2022-11-21T03:05:35;9.30;99.90
13798;DHT22;6970;51.340;3.240;2022-11-21T03:08:03;9.30;99.90
13798;DHT22;6970;51.340;3.240;2022-11-21T03:10:31;9.30;99.90
13798;DHT22;6970;51.340;3.240;2022-11-21T03:12:58;9.30;99.90
13798;DHT22;6970;51.340;3.240;2022-11-21T03:15:29;9.20;99.90
13798;DHT22;6970;51.340;3.240;2022-11-21T03:17:57;9.20;99.90
13798;DHT22;6970;51.340;3.240;2022-11-21T03:20:27;9.20;99.90
13798;DHT22;6970;51.340;3.240;2022-11-21T03:22:54;9.20;99.90
13798;DHT22;6970;51.340;3.240;2022-11-21T03:25:21;9.10;99.90
13798;DHT22;6970;51.340;3.240;2022-11-21T03:27:52;9.10;99.90
13798;DHT22;6970;51.340;3.240;2022-11-21T03:30:20;9.10;99.90
13798;DHT22;6970;51.340;3.240;2022-11-21T03:32:47;9.10;99.90
13798;DHT22;6970;51.340;3.240;2022-11-21T03:35:15;9.10;99.90
13798;DHT22;6970;51.340;3.240;2022-11-21T03:37:42;9.20;99.90
13798;DHT22;6970;51.340;3.240;2022-11-21T03:40:09;9.10;99.90
13798;DHT22;6970;51.340;3.240;2022-11-21T03:42:37;9.20;99.90
13798;DHT22;6970;51.340;3.240;2022-11-21T03:45:04;9.20;99.90
13798;DHT22;6970;51.340;3.240;2022-11-21T03:47:31;9.10;99.90
13798;DHT22;6970;51.340;3.240;2022-11-21T03:49:58;9.20;99.90
13798;DHT22;6970;51.340;3.240;2022-11-21T03:52:25;9.20;99.90
13798;DHT22;6970;51.340;3.240;2022-11-21T03:54:52;9.20;99.90
13798;DHT22;6970;51.340;3.240;2022-11-21T03:57:19;9.20;99.90
13798;DHT22;6970;51.340;3.240;2022-11-21T03:59:46;9.20;99.90
13798;DHT22;6970;51.340;3.240;2022-11-21T04:02:13;9.20;99.90
13798;DHT22;6970;51.340;3.240;2022-11-21T04:04:40;9.20;99.90
13798;DHT22;6970;51.340;3.240;2022-11-21T04:07:06;9.20;99.90
13798;DHT22;6970;51.340;3.240;2022-11-21T04:09:34;9.20;99.90
13798;DHT22;6970;51.340;3.240;2022-11-21T04:12:01;9.20;99.90
13798;DHT22;6970;51.340;3.240;2022-11-21T04:14:33;9.20;99.90
13798;DHT22;6970;51.340;3.240;2022-11-21T04:17:00;9.20;99.90
13798;DHT22;6970;51.340;3.240;2022-11-21T04:19:27;9.20;99.90
13798;DHT22;6970;51.340;3.240;2022-11-21T04:21:54;9.20;99.90
13798;DHT22;6970;51.340;3.240;2022-11-21T04:24:20;9.20;99.90
13798;DHT22;6970;51.340;3.240;2022-11-21T04:26:47;9.20;99.90
13798;DHT22;6970;51.340;3.240;2022-11-21T04:29:14;9.20;99.90
13798;DHT22;6970;51.340;3.240;2022-11-21T04:31:41;9.20;99.90
13798;DHT22;6970;51.340;3.240;2022-11-21T04:34:08;9.20;99.90
13798;DHT22;6970;51.340;3.240;2022-11-21T04:36:35;9.20;99.90
13798;DHT22;6970;51.340;3.240;2022-11-21T04:39:02;9.20;99.90
13798;DHT22;6970;51.340;3.240;2022-11-21T04:41:29;9.20;99.90
13798;DHT22;6970;51.340;3.240;2022-11-21T04:43:56;9.20;99.90
13798;DHT22;6970;51.340;3.240;2022-11-21T04:46:23;9.20;99.90
13798;DHT22;6970;51.340;3.240;2022-11-21T04:48:50;9.00;99.90
13798;DHT22;6970;51.340;3.240;2022-11-21T04:51:17;8.90;99.90
13798;DHT22;6970;51.340;3.240;2022-11-21T04:53:44;8.80;99.90
13798;DHT22;6970;51.340;3.240;2022-11-21T04:56:10;8.60;99.90
13798;DHT22;6970;51.340;3.240;2022-11-21T04:58:42;8.40;99.90
13798;DHT22;6970;51.340;3.240;2022-11-21T05:01:10;8.30;99.90
13798;DHT22;6970;51.340;3.240;2022-11-21T05:03:37;8.20;99.90
13798;DHT22;6970;51.340;3.240;2022-11-21T05:06:04;8.20;99.90
13798;DHT22;6970;51.340;3.240;2022-11-21T05:08:31;8.10;99.90
13798;DHT22;6970;51.340;3.240;2022-11-21T05:10:58;8.10;99.90
13798;DHT22;6970;51.340;3.240;2022-11-21T05:13:43;8.00;99.90
13798;DHT22;6970;51.340;3.240;2022-11-21T05:16:10;8.00;99.90
13798;DHT22;6970;51.340;3.240;2022-11-21T05:18:37;7.90;99.90
13798;DHT22;6970;51.340;3.240;2022-11-21T05:21:04;7.90;99.90
13798;DHT22;6970;51.340;3.240;2022-11-21T05:23:31;7.90;99.90
13798;DHT22;6970;51.340;3.240;2022-11-21T05:25:58;8.00;99.90
13798;DHT22;6970;51.340;3.240;2022-11-21T05:28:25;7.90;99.90
13798;DHT22;6970;51.340;3.240;2022-11-21T05:30:52;7.90;99.90
13798;DHT22;6970;51.340;3.240;2022-11-21T05:33:20;7.90;99.90
13798;DHT22;6970;51.340;3.240;2022-11-21T05:35:47;7.90;99.90
13798;DHT22;6970;51.340;3.240;2022-11-21T05:38:14;7.80;99.90
13798;DHT22;6970;51.340;3.240;2022-11-21T05:40:41;7.80;99.90
13798;DHT22;6970;51.340;3.240;2022-11-21T05:43:11;7.70;99.90
13798;DHT22;6970;51.340;3.240;2022-11-21T05:45:56;7.70;99.90
13798;DHT22;6970;51.340;3.240;2022-11-21T05:48:24;7.60;99.90
13798;DHT22;6970;51.340;3.240;2022-11-21T05:50:51;7.60;99.90
13798;DHT22;6970;51.340;3.240;2022-11-21T05:53:18;7.50;99.90
13798;DHT22;6970;51.340;3.240;2022-11-21T05:55:46;7.40;99.90
13798;DHT22;6970;51.340;3.240;2022-11-21T05:58:13;7.30;99.90
13798;DHT22;6970;51.340;3.240;2022-11-21T06:00:40;7.30;99.90
13798;DHT22;6970;51.340;3.240;2022-11-21T06:03:09;7.20;99.90
13798;DHT22;6970;51.340;3.240;2022-11-21T06:06:11;7.10;99.90
13798;DHT22;6970;51.340;3.240;2022-11-21T06:08:44;7.10;99.90
13798;DHT22;6970;51.340;3.240;2022-11-21T06:11:16;7.00;99.90
13798;DHT22;6970;51.340;3.240;2022-11-21T06:13:43;6.90;99.90
13798;DHT22;6970;51.340;3.240;2022-11-21T06:16:13;6.90;99.90
13798;DHT22;6970;51.340;3.240;2022-11-21T06:18:42;6.80;99.90
13798;DHT22;6970;51.340;3.240;2022-11-21T06:21:15;6.80;99.90
13798;DHT22;6970;51.340;3.240;2022-11-21T06:23:43;6.80;99.90
13798;DHT22;6970;51.340;3.240;2022-11-21T06:26:13;6.70;99.90
13798;DHT22;6970;51.340;3.240;2022-11-21T06:28:42;6.70;99.90
13798;DHT22;6970;51.340;3.240;2022-11-21T06:31:24;6.70;99.90
13798;DHT22;6970;51.340;3.240;2022-11-21T06:33:56;6.60;99.90
13798;DHT22;6970;51.340;3.240;2022-11-21T06:36:24;6.60;99.90
13798;DHT22;6970;51.340;3.240;2022-11-21T06:38:55;6.60;99.90
13798;DHT22;6970;51.340;3.240;2022-11-21T06:41:25;6.60;99.90
13798;DHT22;6970;51.340;3.240;2022-11-21T06:43:52;6.60;99.90
13798;DHT22;6970;51.340;3.240;2022-11-21T06:46:19;6.60;99.90
13798;DHT22;6970;51.340;3.240;2022-11-21T06:48:46;6.60;99.90
13798;DHT22;6970;51.340;3.240;2022-11-21T06:51:21;6.60;99.90
13798;DHT22;6970;51.340;3.240;2022-11-21T06:53:55;6.60;99.90
13798;DHT22;6970;51.340;3.240;2022-11-21T06:56:23;6.50;99.90
13798;DHT22;6970;51.340;3.240;2022-11-21T06:58:51;6.50;99.90
13798;DHT22;6970;51.340;3.240;2022-11-21T07:01:18;6.50;99.90
13798;DHT22;6970;51.340;3.240;2022-11-21T07:03:46;6.60;99.90
13798;DHT22;6970;51.340;3.240;2022-11-21T07:06:13;6.60;99.90
13798;DHT22;6970;51.340;3.240;2022-11-21T07:08:40;6.60;99.90
13798;DHT22;6970;51.340;3.240;2022-11-21T07:11:12;6.60;99.90
13798;DHT22;6970;51.340;3.240;2022-11-21T07:13:54;6.60;99.90
13798;DHT22;6970;51.340;3.240;2022-11-21T07:16:22;6.70;99.90
13798;DHT22;6970;51.340;3.240;2022-11-21T07:18:52;6.70;99.90
13798;DHT22;6970;51.340;3.240;2022-11-21T07:21:18;6.70;99.90
13798;DHT22;6970;51.340;3.240;2022-11-21T07:23:45;6.80;99.90
13798;DHT22;6970;51.340;3.240;2022-11-21T07:26:12;7.00;99.90
13798;DHT22;6970;51.340;3.240;2022-11-21T07:28:39;7.30;99.90
13798;DHT22;6970;51.340;3.240;2022-11-21T07:31:08;7.60;99.90
13798;DHT22;6970;51.340;3.240;2022-11-21T07:33:39;8.00;99.90
13798;DHT22;6970;51.340;3.240;2022-11-21T07:36:09;8.50;99.90
13798;DHT22;6970;51.340;3.240;2022-11-21T07:38:36;9.00;99.90
13798;DHT22;6970;51.340;3.240;2022-11-21T07:41:03;9.40;99.90
13798;DHT22;6970;51.340;3.240;2022-11-21T07:43:31;9.90;99.90
13798;DHT22;6970;51.340;3.240;2022-11-21T07:45:58;10.40;99.90
13798;DHT22;6970;51.340;3.240;2022-11-21T07:48:25;10.70;99.90
13798;DHT22;6970;51.340;3.240;2022-11-21T07:50:51;10.70;99.90
13798;DHT22;6970;51.340;3.240;2022-11-21T07:53:18;10.50;99.90
13798;DHT22;6970;51.340;3.240;2022-11-21T07:55:45;10.40;99.90
13798;DHT22;6970;51.340;3.240;2022-11-21T07:58:15;10.20;99.90
13798;DHT22;6970;51.340;3.240;2022-11-21T08:00:42;9.90;99.90
13798;DHT22;6970;51.340;3.240;2022-11-21T08:03:10;9.50;99.90
13798;DHT22;6970;51.340;3.240;2022-11-21T08:05:40;9.20;99.90
13798;DHT22;6970;51.340;3.240;2022-11-21T08:08:08;8.80;99.90
13798;DHT22;6970;51.340;3.240;2022-11-21T08:10:37;8.50;99.90
13798;DHT22;6970;51.340;3.240;2022-11-21T08:13:05;8.30;99.90
13798;DHT22;6970;51.340;3.240;2022-11-21T08:15:32;8.10;99.90
13798;DHT22;6970;51.340;3.240;2022-11-21T08:18:06;8.00;99.90
13798;DHT22;6970;51.340;3.240;2022-11-21T08:20:33;8.00;99.90
13798;DHT22;6970;51.340;3.240;2022-11-21T08:23:00;8.00;99.90
13798;DHT22;6970;51.340;3.240;2022-11-21T08:25:27;8.00;99.90
13798;DHT22;6970;51.340;3.240;2022-11-21T08:27:58;8.20;99.90
13798;DHT22;6970;51.340;3.240;2022-11-21T08:30:25;8.60;99.90
13798;DHT22;6970;51.340;3.240;2022-11-21T08:32:53;9.00;99.90
13798;DHT22;6970;51.340;3.240;2022-11-21T08:35:20;9.40;99.90
13798;DHT22;6970;51.340;3.240;2022-11-21T08:37:48;9.60;99.90
13798;DHT22;6970;51.340;3.240;2022-11-21T08:40:14;9.60;99.90
13798;DHT22;6970;51.340;3.240;2022-11-21T08:42:41;9.60;99.90
13798;DHT22;6970;51.340;3.240;2022-11-21T08:45:09;9.40;99.90
13798;DHT22;6970;51.340;3.240;2022-11-21T08:47:36;9.10;99.90
13798;DHT22;6970;51.340;3.240;2022-11-21T08:50:04;9.00;99.90
13798;DHT22;6970;51.340;3.240;2022-11-21T08:52:34;8.90;99.90
13798;DHT22;6970;51.340;3.240;2022-11-21T08:55:01;8.70;99.90
13798;DHT22;6970;51.340;3.240;2022-11-21T08:57:28;8.60;99.90
13798;DHT22;6970;51.340;3.240;2022-11-21T08:59:57;8.60;99.90
13798;DHT22;6970;51.340;3.240;2022-11-21T09:02:23;8.50;99.90
13798;DHT22;6970;51.340;3.240;2022-11-21T09:04:50;8.50;99.90
13798;DHT22;6970;51.340;3.240;2022-11-21T09:07:19;8.40;99.90
13798;DHT22;6970;51.340;3.240;2022-11-21T09:09:46;8.30;99.90
13798;DHT22;6970;51.340;3.240;2022-11-21T09:12:12;8.20;99.90
13798;DHT22;6970;51.340;3.240;2022-11-21T09:14:39;8.00;99.90
13798;DHT22;6970;51.340;3.240;2022-11-21T09:17:25;7.90;99.90
13798;DHT22;6970;51.340;3.240;2022-11-21T09:20:10;7.80;99.90
13798;DHT22;6970;51.340;3.240;2022-11-21T09:22:37;7.60;99.90
13798;DHT22;6970;51.340;3.240;2022-11-21T09:25:04;7.50;99.90
13798;DHT22;6970;51.340;3.240;2022-11-21T09:27:32;7.40;99.90
13798;DHT22;6970;51.340;3.240;2022-11-21T09:29:59;7.30;99.90
13798;DHT22;6970;51.340;3.240;2022-11-21T09:32:26;7.20;99.90
13798;DHT22;6970;51.340;3.240;2022-11-21T09:34:53;7.20;99.90
13798;DHT22;6970;51.340;3.240;2022-11-21T09:37:20;7.10;99.90
13798;DHT22;6970;51.340;3.240;2022-11-21T09:39:47;7.20;99.90
13798;DHT22;6970;51.340;3.240;2022-11-21T09:45:38;7.30;99.90
13798;DHT22;6970;51.340;3.240;2022-11-21T09:48:11;7.40;99.90
13798;DHT22;6970;51.340;3.240;2022-11-21T09:50:43;7.40;99.90
13798;DHT22;6970;51.340;3.240;2022-11-21T09:53:26;7.50;99.90
13798;DHT22;6970;51.340;3.240;2022-11-21T09:56:05;7.50;99.90
13798;DHT22;6970;51.340;3.240;2022-11-21T09:58:43;7.50;99.90
13798;DHT22;6970;51.340;3.240;2022-11-21T10:01:13;7.40;99.90
13798;DHT22;6970;51.340;3.240;2022-11-21T10:03:46;7.50;99.90
13798;DHT22;6970;51.340;3.240;2022-11-21T10:06:18;7.50;99.90
13798;DHT22;6970;51.340;3.240;2022-11-21T10:09:04;7.50;99.90
13798;DHT22;6970;51.340;3.240;2022-11-21T10:12:24;7.60;99.90
13798;DHT22;6970;51.340;3.240;2022-11-21T10:20:42;7.80;99.90
13798;DHT22;6970;51.340;3.240;2022-11-21T10:23:28;7.80;99.90
13798;DHT22;6970;51.340;3.240;2022-11-21T10:26:14;7.80;99.90
13798;DHT22;6970;51.340;3.240;2022-11-21T10:31:37;7.90;99.90
13798;DHT22;6970;51.340;3.240;2022-11-21T10:34:14;7.90;99.90
13798;DHT22;6970;51.340;3.240;2022-11-21T10:36:46;8.00;99.90
13798;DHT22;6970;51.340;3.240;2022-11-21T10:44:47;8.10;99.90
13798;DHT22;6970;51.340;3.240;2022-11-21T10:47:34;8.10;99.90
13798;DHT22;6970;51.340;3.240;2022-11-21T10:50:22;8.10;99.90
13798;DHT22;6970;51.340;3.240;2022-11-21T10:53:17;8.20;99.90
13798;DHT22;6970;51.340;3.240;2022-11-21T10:58:46;8.20;99.90
13798;DHT22;6970;51.340;3.240;2022-11-21T11:01:32;8.30;99.90
13798;DHT22;6970;51.340;3.240;2022-11-21T11:06:57;8.40;99.90
13798;DHT22;6970;51.340;3.240;2022-11-21T11:09:32;8.40;99.90
13798;DHT22;6970;51.340;3.240;2022-11-21T11:12:28;8.40;99.90
13798;DHT22;6970;51.340;3.240;2022-11-21T11:15:24;8.40;99.90
13798;DHT22;6970;51.340;3.240;2022-11-21T11:18:02;8.40;99.90
13798;DHT22;6970;51.340;3.240;2022-11-21T11:20:41;8.30;99.90
13798;DHT22;6970;51.340;3.240;2022-11-21T11:23:26;8.30;99.90
13798;DHT22;6970;51.340;3.240;2022-11-21T11:25:58;8.20;99.90
13798;DHT22;6970;51.340;3.240;2022-11-21T11:28:26;8.20;99.90
13798;DHT22;6970;51.340;3.240;2022-11-21T11:30:59;8.20;99.90
13798;DHT22;6970;51.340;3.240;2022-11-21T11:33:35;8.20;99.90
13798;DHT22;6970;51.340;3.240;2022-11-21T11:38:33;8.20;99.90
13798;DHT22;6970;51.340;3.240;2022-11-21T11:44:09;8.10;99.90
13798;DHT22;6970;51.340;3.240;2022-11-21T11:47:04;8.10;99.90
13798;DHT22;6970;51.340;3.240;2022-11-21T11:49:57;8.10;99.90
13798;DHT22;6970;51.340;3.240;2022-11-21T11:55:42;8.00;99.90
13798;DHT22;6970;51.340;3.240;2022-11-21T12:01:15;8.00;99.90
13798;DHT22;6970;51.340;3.240;2022-11-21T12:04:21;8.00;99.90
13798;DHT22;6970;51.340;3.240;2022-11-21T12:12:28;7.90;99.90
13798;DHT22;6970;51.340;3.240;2022-11-21T12:20:44;7.90;99.90
13798;DHT22;6970;51.340;3.240;2022-11-21T12:23:15;7.80;99.90
13798;DHT22;6970;51.340;3.240;2022-11-21T12:28:39;7.80;99.90
13798;DHT22;6970;51.340;3.240;2022-11-21T12:33:52;7.80;99.90
13798;DHT22;6970;51.340;3.240;2022-11-21T12:36:27;7.70;99.90
13798;DHT22;6970;51.340;3.240;2022-11-21T12:39:28;7.80;99.90
13798;DHT22;6970;51.340;3.240;2022-11-21T12:42:09;7.80;99.90
13798;DHT22;6970;51.340;3.240;2022-11-21T12:48:15;7.80;99.90
13798;DHT22;6970;51.340;3.240;2022-11-21T12:57:04;7.80;99.90
13798;DHT22;6970;51.340;3.240;2022-11-21T12:59:48;7.90;99.90
13798;DHT22;6970;51.340;3.240;2022-11-21T13:05:12;7.90;99.90
13798;DHT22;6970;51.340;3.240;2022-11-21T13:07:42;8.00;99.90
13798;DHT22;6970;51.340;3.240;2022-11-21T13:10:14;8.00;99.90
13798;DHT22;6970;51.340;3.240;2022-11-21T13:12:47;8.00;99.90
13798;DHT22;6970;51.340;3.240;2022-11-21T13:15:40;8.00;99.90
13798;DHT22;6970;51.340;3.240;2022-11-21T13:18:20;8.00;99.90
13798;DHT22;6970;51.340;3.240;2022-11-21T13:20:50;8.10;99.90
13798;DHT22;6970;51.340;3.240;2022-11-21T13:23:37;8.10;99.90
13798;DHT22;6970;51.340;3.240;2022-11-21T13:29:12;8.10;99.90
13798;DHT22;6970;51.340;3.240;2022-11-21T13:31:40;8.20;99.90
13798;DHT22;6970;51.340;3.240;2022-11-21T13:34:36;8.20;99.90
13798;DHT22;6970;51.340;3.240;2022-11-21T13:37:04;8.20;99.90
13798;DHT22;6970;51.340;3.240;2022-11-21T13:39:33;8.20;99.90
13798;DHT22;6970;51.340;3.240;2022-11-21T13:42:06;8.30;99.90
13798;DHT22;6970;51.340;3.240;2022-11-21T13:44:52;8.30;99.90
13798;DHT22;6970;51.340;3.240;2022-11-21T13:47:30;8.30;99.90
13798;DHT22;6970;51.340;3.240;2022-11-21T13:50:38;8.30;99.90
13798;DHT22;6970;51.340;3.240;2022-11-21T13:56:23;8.30;99.90
13798;DHT22;6970;51.340;3.240;2022-11-21T14:07:40;8.40;99.90
13798;DHT22;6970;51.340;3.240;2022-11-21T14:10:32;8.40;99.90
13798;DHT22;6970;51.340;3.240;2022-11-21T14:13:02;8.40;99.90
13798;DHT22;6970;51.340;3.240;2022-11-21T14:18:20;8.50;99.90
13798;DHT22;6970;51.340;3.240;2022-11-21T14:20:54;8.50;99.90
13798;DHT22;6970;51.340;3.240;2022-11-21T14:23:29;8.50;99.90
13798;DHT22;6970;51.340;3.240;2022-11-21T14:26:17;8.50;99.90
13798;DHT22;6970;51.340;3.240;2022-11-21T14:28:47;8.50;99.90
13798;DHT22;6970;51.340;3.240;2022-11-21T14:31:14;8.50;99.90
13798;DHT22;6970;51.340;3.240;2022-11-21T14:33:42;8.50;99.90
13798;DHT22;6970;51.340;3.240;2022-11-21T14:36:22;8.50;99.90
13798;DHT22;6970;51.340;3.240;2022-11-21T14:38:57;8.50;99.90
13798;DHT22;6970;51.340;3.240;2022-11-21T14:41:50;8.50;99.90
13798;DHT22;6970;51.340;3.240;2022-11-21T14:44:20;8.50;99.90
13798;DHT22;6970;51.340;3.240;2022-11-21T14:46:48;8.50;99.90
13798;DHT22;6970;51.340;3.240;2022-11-21T14:49:17;8.50;99.90
13798;DHT22;6970;51.340;3.240;2022-11-21T14:52:22;8.50;99.90
13798;DHT22;6970;51.340;3.240;2022-11-21T14:54:55;8.50;99.90
13798;DHT22;6970;51.340;3.240;2022-11-21T14:57:43;8.50;99.90
13798;DHT22;6970;51.340;3.240;2022-11-21T15:00:15;8.50;99.90
13798;DHT22;6970;51.340;3.240;2022-11-21T15:03:20;8.50;99.90
13798;DHT22;6970;51.340;3.240;2022-11-21T15:05:48;8.50;99.90
13798;DHT22;6970;51.340;3.240;2022-11-21T15:08:35;8.50;99.90
13798;DHT22;6970;51.340;3.240;2022-11-21T15:11:24;8.50;99.90
13798;DHT22;6970;51.340;3.240;2022-11-21T15:14:00;8.50;99.90
13798;DHT22;6970;51.340;3.240;2022-11-21T15:16:49;8.50;99.90
13798;DHT22;6970;51.340;3.240;2022-11-21T15:19:22;8.50;99.90
13798;DHT22;6970;51.340;3.240;2022-11-21T15:21:51;8.50;99.90
13798;DHT22;6970;51.340;3.240;2022-11-21T15:24:39;8.50;99.90
13798;DHT22;6970;51.340;3.240;2022-11-21T15:32:28;8.50;99.90
13798;DHT22;6970;51.340;3.240;2022-11-21T15:34:54;8.50;99.90
13798;DHT22;6970;51.340;3.240;2022-11-21T15:37:21;8.50;99.90
13798;DHT22;6970;51.340;3.240;2022-11-21T15:39:52;8.50;99.90
13798;DHT22;6970;51.340;3.240;2022-11-21T15:48:00;8.40;99.90
13798;DHT22;6970;51.340;3.240;2022-11-21T15:50:27;8.40;99.90
13798;DHT22;6970;51.340;3.240;2022-11-21T15:52:54;8.40;99.90
13798;DHT22;6970;51.340;3.240;2022-11-21T15:55:25;8.30;99.90
13798;DHT22;6970;51.340;3.240;2022-11-21T15:57:52;8.30;99.90
13798;DHT22;6970;51.340;3.240;2022-11-21T16:00:19;8.30;99.90
13798;DHT22;6970;51.340;3.240;2022-11-21T16:02:46;8.30;99.90
13798;DHT22;6970;51.340;3.240;2022-11-21T16:05:14;8.30;99.90
13798;DHT22;6970;51.340;3.240;2022-11-21T16:07:41;8.30;99.90
13798;DHT22;6970;51.340;3.240;2022-11-21T16:10:09;8.30;99.90
13798;DHT22;6970;51.340;3.240;2022-11-21T16:12:48;8.20;99.90
13798;DHT22;6970;51.340;3.240;2022-11-21T16:15:15;8.20;99.90
13798;DHT22;6970;51.340;3.240;2022-11-21T16:17:42;8.20;99.90
13798;DHT22;6970;51.340;3.240;2022-11-21T16:20:13;8.20;99.90
13798;DHT22;6970;51.340;3.240;2022-11-21T16:22:40;8.20;99.90
13798;DHT22;6970;51.340;3.240;2022-11-21T16:25:13;8.20;99.90
13798;DHT22;6970;51.340;3.240;2022-11-21T16:27:40;8.10;99.90
13798;DHT22;6970;51.340;3.240;2022-11-21T16:30:08;8.10;99.90
13798;DHT22;6970;51.340;3.240;2022-11-21T16:32:35;8.10;99.90
13798;DHT22;6970;51.340;3.240;2022-11-21T16:35:03;8.10;99.90
13798;DHT22;6970;51.340;3.240;2022-11-21T16:37:33;8.10;99.90
13798;DHT22;6970;51.340;3.240;2022-11-21T16:40:00;8.10;99.90
13798;DHT22;6970;51.340;3.240;2022-11-21T16:42:27;8.00;99.90
13798;DHT22;6970;51.340;3.240;2022-11-21T16:44:53;8.00;99.90
13798;DHT22;6970;51.340;3.240;2022-11-21T16:47:20;8.10;99.90
13798;DHT22;6970;51.340;3.240;2022-11-21T16:49:47;8.10;99.90
13798;DHT22;6970;51.340;3.240;2022-11-21T16:52:14;8.00;99.90
13798;DHT22;6970;51.340;3.240;2022-11-21T16:54:43;8.00;99.90
13798;DHT22;6970;51.340;3.240;2022-11-21T16:57:10;8.00;99.90
13798;DHT22;6970;51.340;3.240;2022-11-21T16:59:37;8.00;99.90
13798;DHT22;6970;51.340;3.240;2022-11-21T17:02:04;8.00;99.90
13798;DHT22;6970;51.340;3.240;2022-11-21T17:04:31;8.00;99.90
13798;DHT22;6970;51.340;3.240;2022-11-21T17:06:59;8.00;99.90
13798;DHT22;6970;51.340;3.240;2022-11-21T17:09:26;8.00;99.90
13798;DHT22;6970;51.340;3.240;2022-11-21T17:11:56;8.00;99.90
13798;DHT22;6970;51.340;3.240;2022-11-21T17:14:23;7.90;99.90
13798;DHT22;6970;51.340;3.240;2022-11-21T17:16:50;7.90;99.90
13798;DHT22;6970;51.340;3.240;2022-11-21T17:19:17;7.90;99.90
13798;DHT22;6970;51.340;3.240;2022-11-21T17:21:44;7.90;99.90
13798;DHT22;6970;51.340;3.240;2022-11-21T17:24:12;7.80;99.90
13798;DHT22;6970;51.340;3.240;2022-11-21T17:26:39;7.80;99.90
13798;DHT22;6970;51.340;3.240;2022-11-21T17:29:06;7.80;99.90
13798;DHT22;6970;51.340;3.240;2022-11-21T17:31:33;7.80;99.90
13798;DHT22;6970;51.340;3.240;2022-11-21T17:34:00;7.80;99.90
13798;DHT22;6970;51.340;3.240;2022-11-21T17:36:29;7.80;99.90
13798;DHT22;6970;51.340;3.240;2022-11-21T17:38:56;7.80;99.90
13798;DHT22;6970;51.340;3.240;2022-11-21T17:41:24;7.80;99.90
13798;DHT22;6970;51.340;3.240;2022-11-21T17:43:55;7.80;99.90
13798;DHT22;6970;51.340;3.240;2022-11-21T17:46:24;7.70;99.90
13798;DHT22;6970;51.340;3.240;2022-11-21T17:48:53;7.70;99.90
13798;DHT22;6970;51.340;3.240;2022-11-21T17:51:26;7.70;99.90
13798;DHT22;6970;51.340;3.240;2022-11-21T17:53:54;7.70;99.90
13798;DHT22;6970;51.340;3.240;2022-11-21T17:56:23;7.70;99.90
13798;DHT22;6970;51.340;3.240;2022-11-21T17:58:51;7.70;99.90
13798;DHT22;6970;51.340;3.240;2022-11-21T18:01:18;7.60;99.90
13798;DHT22;6970;51.340;3.240;2022-11-21T18:03:55;7.60;99.90
13798;DHT22;6970;51.340;3.240;2022-11-21T18:06:23;7.60;99.90
13798;DHT22;6970;51.340;3.240;2022-11-21T18:08:50;7.50;99.90
13798;DHT22;6970;51.340;3.240;2022-11-21T18:11:19;7.50;99.90